sensor_id;sensor_type;location;lat;lon;timestamp;temperature;humidity
32640;DHT22;19049;52.524;11.468;2023-12-20T00:01:33;9.00;99.90
32640;DHT22;19049;52.524;11.468;2023-12-20T00:03:58;9.00;99.90
32640;DHT22;19049;52.524;11.468;2023-12-20T00:06:24;9.00;99.90
32640;DHT22;19049;52.524;11.468;2023-12-20T00:08:49;8.90;99.90
32640;DHT22;19049;52.524;11.468;2023-12-20T00:11:15;9.00;99.90
32640;DHT22;19049;52.524;11.468;2023-12-20T00:13:41;9.00;99.90
32640;DHT22;19049;52.524;11.468;2023-12-20T00:16:06;9.00;99.90
32640;DHT22;19049;52.524;11.468;2023-12-20T00:18:32;9.00;99.90
32640;DHT22;19049;52.524;11.468;2023-12-20T00:20:57;9.00;99.90
32640;DHT22;19049;52.524;11.468;2023-12-20T00:23:23;9.00;99.90
32640;DHT22;19049;52.524;11.468;2023-12-20T00:25:49;9.10;99.90
32640;DHT22;19049;52.524;11.468;2023-12-20T00:28:15;9.10;99.90
32640;DHT22;19049;52.524;11.468;2023-12-20T00:30:40;9.10;99.90
32640;DHT22;19049;52.524;11.468;2023-12-20T00:33:06;9.10;99.90
32640;DHT22;19049;52.524;11.468;2023-12-20T00:35:32;9.10;99.90
32640;DHT22;19049;52.524;11.468;2023-12-20T00:37:58;9.10;99.90
32640;DHT22;19049;52.524;11.468;2023-12-20T00:40:24;9.10;99.90
32640;DHT22;19049;52.524;11.468;2023-12-20T00:42:50;9.10;99.90
32640;DHT22;19049;52.524;11.468;2023-12-20T00:45:15;9.10;99.90
32640;DHT22;19049;52.524;11.468;2023-12-20T00:47:41;9.10;99.90
32640;DHT22;19049;52.524;11.468;2023-12-20T00:50:07;9.10;99.90
32640;DHT22;19049;52.524;11.468;2023-12-20T00:52:33;9.10;99.90
32640;DHT22;19049;52.524;11.468;2023-12-20T00:54:58;9.10;99.90
32640;DHT22;19049;52.524;11.468;2023-12-20T00:57:24;9.10;99.90
32640;DHT22;19049;52.524;11.468;2023-12-20T00:59:50;9.00;99.90
32640;DHT22;19049;52.524;11.468;2023-12-20T01:02:16;9.10;99.90
32640;DHT22;19049;52.524;11.468;2023-12-20T01:04:42;9.00;99.90
32640;DHT22;19049;52.524;11.468;2023-12-20T01:07:08;9.00;99.90
32640;DHT22;19049;52.524;11.468;2023-12-20T01:09:33;9.00;99.90
32640;DHT22;19049;52.524;11.468;2023-12-20T01:11:59;9.00;99.90
32640;DHT22;19049;52.524;11.468;2023-12-20T01:14:24;8.90;99.90
32640;DHT22;19049;52.524;11.468;2023-12-20T01:16:50;8.90;99.90
32640;DHT22;19049;52.524;11.468;2023-12-20T01:19:16;8.90;99.90
32640;DHT22;19049;52.524;11.468;2023-12-20T01:21:41;8.90;99.90
32640;DHT22;19049;52.524;11.468;2023-12-20T01:24:07;8.90;99.90
32640;DHT22;19049;52.524;11.468;2023-12-20T01:26:33;8.90;99.90
32640;DHT22;19049;52.524;11.468;2023-12-20T01:28:58;8.90;99.90
32640;DHT22;19049;52.524;11.468;2023-12-20T01:31:24;8.90;99.90
32640;DHT22;19049;52.524;11.468;2023-12-20T01:33:49;8.80;99.90
32640;DHT22;19049;52.524;11.468;2023-12-20T01:36:15;8.70;99.90
32640;DHT22;19049;52.524;11.468;2023-12-20T01:38:41;8.70;99.90
32640;DHT22;19049;52.524;11.468;2023-12-20T01:41:06;8.70;99.90
32640;DHT22;19049;52.524;11.468;2023-12-20T01:43:32;8.70;99.90
32640;DHT22;19049;52.524;11.468;2023-12-20T01:45:58;8.60;99.90
32640;DHT22;19049;52.524;11.468;2023-12-20T01:48:25;8.60;99.90
32640;DHT22;19049;52.524;11.468;2023-12-20T01:50:51;8.50;99.90
32640;DHT22;19049;52.524;11.468;2023-12-20T01:53:18;8.50;99.90
32640;DHT22;19049;52.524;11.468;2023-12-20T01:55:44;8.40;99.90
32640;DHT22;19049;52.524;11.468;2023-12-20T01:58:11;8.40;99.90
32640;DHT22;19049;52.524;11.468;2023-12-20T02:00:37;8.30;99.90
32640;DHT22;19049;52.524;11.468;2023-12-20T02:03:04;8.20;99.90
32640;DHT22;19049;52.524;11.468;2023-12-20T02:05:30;8.20;99.90
32640;DHT22;19049;52.524;11.468;2023-12-20T02:07:56;8.20;99.90
32640;DHT22;19049;52.524;11.468;2023-12-20T02:10:23;8.10;99.90
32640;DHT22;19049;52.524;11.468;2023-12-20T02:12:48;8.10;99.90
32640;DHT22;19049;52.524;11.468;2023-12-20T02:15:14;8.10;99.90
32640;DHT22;19049;52.524;11.468;2023-12-20T02:17:40;8.10;99.90
32640;DHT22;19049;52.524;11.468;2023-12-20T02:20:06;8.00;99.90
32640;DHT22;19049;52.524;11.468;2023-12-20T02:22:32;8.10;99.90
32640;DHT22;19049;52.524;11.468;2023-12-20T02:24:57;8.00;99.90
32640;DHT22;19049;52.524;11.468;2023-12-20T02:27:23;8.10;99.90
32640;DHT22;19049;52.524;11.468;2023-12-20T02:29:49;8.00;99.90
32640;DHT22;19049;52.524;11.468;2023-12-20T02:32:17;8.00;99.90
32640;DHT22;19049;52.524;11.468;2023-12-20T02:34:43;8.10;99.90
32640;DHT22;19049;52.524;11.468;2023-12-20T02:37:09;8.00;99.90
32640;DHT22;19049;52.524;11.468;2023-12-20T02:39:37;8.00;99.90
32640;DHT22;19049;52.524;11.468;2023-12-20T02:42:03;8.00;99.90
32640;DHT22;19049;52.524;11.468;2023-12-20T02:44:28;8.00;99.90
32640;DHT22;19049;52.524;11.468;2023-12-20T02:46:54;8.00;99.90
32640;DHT22;19049;52.524;11.468;2023-12-20T02:49:20;8.00;99.90
32640;DHT22;19049;52.524;11.468;2023-12-20T02:51:45;7.90;99.90
32640;DHT22;19049;52.524;11.468;2023-12-20T02:54:12;8.00;99.90
32640;DHT22;19049;52.524;11.468;2023-12-20T02:56:37;7.90;99.90
32640;DHT22;19049;52.524;11.468;2023-12-20T02:59:03;7.90;99.90
32640;DHT22;19049;52.524;11.468;2023-12-20T03:01:31;7.80;99.90
32640;DHT22;19049;52.524;11.468;2023-12-20T03:03:56;7.80;99.90
32640;DHT22;19049;52.524;11.468;2023-12-20T03:06:22;7.70;99.90
32640;DHT22;19049;52.524;11.468;2023-12-20T03:08:48;7.60;99.90
32640;DHT22;19049;52.524;11.468;2023-12-20T03:11:13;7.60;99.90
32640;DHT22;19049;52.524;11.468;2023-12-20T03:13:39;7.50;99.90
32640;DHT22;19049;52.524;11.468;2023-12-20T03:16:11;7.40;99.90
32640;DHT22;19049;52.524;11.468;2023-12-20T03:18:37;7.40;99.90
32640;DHT22;19049;52.524;11.468;2023-12-20T03:21:04;7.40;99.90
32640;DHT22;19049;52.524;11.468;2023-12-20T03:23:30;7.40;99.90
32640;DHT22;19049;52.524;11.468;2023-12-20T03:26:00;7.40;99.90
32640;DHT22;19049;52.524;11.468;2023-12-20T03:28:29;7.40;99.90
32640;DHT22;19049;52.524;11.468;2023-12-20T03:30:55;7.40;99.90
32640;DHT22;19049;52.524;11.468;2023-12-20T03:33:21;7.40;99.90
32640;DHT22;19049;52.524;11.468;2023-12-20T03:35:46;7.50;99.90
32640;DHT22;19049;52.524;11.468;2023-12-20T03:38:12;7.50;99.90
32640;DHT22;19049;52.524;11.468;2023-12-20T03:40:37;7.50;99.90
32640;DHT22;19049;52.524;11.468;2023-12-20T03:43:03;7.60;99.90
32640;DHT22;19049;52.524;11.468;2023-12-20T03:45:29;7.60;99.90
32640;DHT22;19049;52.524;11.468;2023-12-20T03:47:54;7.60;99.90
32640;DHT22;19049;52.524;11.468;2023-12-20T03:50:25;7.60;99.90
32640;DHT22;19049;52.524;11.468;2023-12-20T03:52:51;7.60;99.90
32640;DHT22;19049;52.524;11.468;2023-12-20T03:55:17;7.70;99.90
32640;DHT22;19049;52.524;11.468;2023-12-20T03:57:43;7.70;99.90
32640;DHT22;19049;52.524;11.468;2023-12-20T04:00:09;7.70;99.90
32640;DHT22;19049;52.524;11.468;2023-12-20T04:02:36;7.70;99.90
32640;DHT22;19049;52.524;11.468;2023-12-20T04:05:02;7.70;99.90
32640;DHT22;19049;52.524;11.468;2023-12-20T04:07:28;7.80;99.90
32640;DHT22;19049;52.524;11.468;2023-12-20T04:09:53;7.70;99.90
32640;DHT22;19049;52.524;11.468;2023-12-20T04:12:19;7.60;99.90
32640;DHT22;19049;52.524;11.468;2023-12-20T04:14:44;7.70;99.90
32640;DHT22;19049;52.524;11.468;2023-12-20T04:17:10;7.70;99.90
32640;DHT22;19049;52.524;11.468;2023-12-20T04:19:35;7.60;99.90
32640;DHT22;19049;52.524;11.468;2023-12-20T04:22:01;7.60;99.90
32640;DHT22;19049;52.524;11.468;2023-12-20T04:24:26;7.60;99.90
32640;DHT22;19049;52.524;11.468;2023-12-20T04:26:52;7.50;99.90
32640;DHT22;19049;52.524;11.468;2023-12-20T04:29:18;7.50;99.90
32640;DHT22;19049;52.524;11.468;2023-12-20T04:31:43;7.50;99.90
32640;DHT22;19049;52.524;11.468;2023-12-20T04:34:09;7.40;99.90
32640;DHT22;19049;52.524;11.468;2023-12-20T04:36:34;7.40;99.90
32640;DHT22;19049;52.524;11.468;2023-12-20T04:39:00;7.30;99.90
32640;DHT22;19049;52.524;11.468;2023-12-20T04:41:26;7.30;99.90
32640;DHT22;19049;52.524;11.468;2023-12-20T04:43:53;7.30;99.90
32640;DHT22;19049;52.524;11.468;2023-12-20T04:46:18;7.20;99.90
32640;DHT22;19049;52.524;11.468;2023-12-20T04:48:44;7.20;99.90
32640;DHT22;19049;52.524;11.468;2023-12-20T04:51:09;7.10;99.90
32640;DHT22;19049;52.524;11.468;2023-12-20T04:53:35;7.10;99.90
32640;DHT22;19049;52.524;11.468;2023-12-20T04:56:00;7.10;99.90
32640;DHT22;19049;52.524;11.468;2023-12-20T04:58:26;7.00;99.90
32640;DHT22;19049;52.524;11.468;2023-12-20T05:00:52;7.00;99.90
32640;DHT22;19049;52.524;11.468;2023-12-20T05:03:17;7.00;99.90
32640;DHT22;19049;52.524;11.468;2023-12-20T05:05:43;6.90;99.90
32640;DHT22;19049;52.524;11.468;2023-12-20T05:08:08;6.90;99.90
32640;DHT22;19049;52.524;11.468;2023-12-20T05:10:34;6.90;99.90
32640;DHT22;19049;52.524;11.468;2023-12-20T05:13:01;6.80;99.90
32640;DHT22;19049;52.524;11.468;2023-12-20T05:15:27;6.80;99.90
32640;DHT22;19049;52.524;11.468;2023-12-20T05:17:53;6.90;99.90
32640;DHT22;19049;52.524;11.468;2023-12-20T05:20:19;6.90;99.90
32640;DHT22;19049;52.524;11.468;2023-12-20T05:22:44;6.90;99.90
32640;DHT22;19049;52.524;11.468;2023-12-20T05:25:10;7.00;99.90
32640;DHT22;19049;52.524;11.468;2023-12-20T05:27:36;7.00;99.90
32640;DHT22;19049;52.524;11.468;2023-12-20T05:30:02;7.10;99.90
32640;DHT22;19049;52.524;11.468;2023-12-20T05:32:29;7.10;99.90
32640;DHT22;19049;52.524;11.468;2023-12-20T05:34:55;7.20;99.90
32640;DHT22;19049;52.524;11.468;2023-12-20T05:37:21;7.20;99.90
32640;DHT22;19049;52.524;11.468;2023-12-20T05:39:46;7.20;99.90
32640;DHT22;19049;52.524;11.468;2023-12-20T05:42:12;7.20;99.90
32640;DHT22;19049;52.524;11.468;2023-12-20T05:44:37;7.30;99.90
32640;DHT22;19049;52.524;11.468;2023-12-20T05:47:03;7.40;99.90
32640;DHT22;19049;52.524;11.468;2023-12-20T05:49:29;7.30;99.90
32640;DHT22;19049;52.524;11.468;2023-12-20T05:51:54;7.40;99.90
32640;DHT22;19049;52.524;11.468;2023-12-20T05:54:20;7.40;99.90
32640;DHT22;19049;52.524;11.468;2023-12-20T05:56:47;7.40;99.90
32640;DHT22;19049;52.524;11.468;2023-12-20T05:59:12;7.50;99.90
32640;DHT22;19049;52.524;11.468;2023-12-20T06:01:38;7.50;99.90
32640;DHT22;19049;52.524;11.468;2023-12-20T06:04:03;7.50;99.90
32640;DHT22;19049;52.524;11.468;2023-12-20T06:06:29;7.50;99.90
32640;DHT22;19049;52.524;11.468;2023-12-20T06:08:56;7.50;99.90
32640;DHT22;19049;52.524;11.468;2023-12-20T06:11:21;7.50;99.90
32640;DHT22;19049;52.524;11.468;2023-12-20T06:13:47;7.50;99.90
32640;DHT22;19049;52.524;11.468;2023-12-20T06:16:14;7.50;99.90
32640;DHT22;19049;52.524;11.468;2023-12-20T06:18:40;7.50;99.90
32640;DHT22;19049;52.524;11.468;2023-12-20T06:21:05;7.50;99.90
32640;DHT22;19049;52.524;11.468;2023-12-20T06:23:32;7.50;99.90
32640;DHT22;19049;52.524;11.468;2023-12-20T06:25:58;7.50;99.90
32640;DHT22;19049;52.524;11.468;2023-12-20T06:28:23;7.50;99.90
32640;DHT22;19049;52.524;11.468;2023-12-20T06:30:49;7.50;99.90
32640;DHT22;19049;52.524;11.468;2023-12-20T06:33:15;7.50;99.90
32640;DHT22;19049;52.524;11.468;2023-12-20T06:35:41;7.50;99.90
32640;DHT22;19049;52.524;11.468;2023-12-20T06:38:06;7.60;99.90
32640;DHT22;19049;52.524;11.468;2023-12-20T06:40:32;7.50;99.90
32640;DHT22;19049;52.524;11.468;2023-12-20T06:42:57;7.50;99.90
32640;DHT22;19049;52.524;11.468;2023-12-20T06:45:24;7.50;99.90
32640;DHT22;19049;52.524;11.468;2023-12-20T06:47:50;7.50;99.90
32640;DHT22;19049;52.524;11.468;2023-12-20T06:50:16;7.50;99.90
32640;DHT22;19049;52.524;11.468;2023-12-20T06:52:41;7.50;99.90
32640;DHT22;19049;52.524;11.468;2023-12-20T06:55:07;7.50;99.90
32640;DHT22;19049;52.524;11.468;2023-12-20T06:57:33;7.50;99.90
32640;DHT22;19049;52.524;11.468;2023-12-20T06:59:58;7.50;99.90
32640;DHT22;19049;52.524;11.468;2023-12-20T07:02:24;7.50;99.90
32640;DHT22;19049;52.524;11.468;2023-12-20T07:04:50;7.50;99.90
32640;DHT22;19049;52.524;11.468;2023-12-20T07:07:15;7.50;99.90
32640;DHT22;19049;52.524;11.468;2023-12-20T07:09:41;7.50;99.90
32640;DHT22;19049;52.524;11.468;2023-12-20T07:12:08;7.50;99.90
32640;DHT22;19049;52.524;11.468;2023-12-20T07:14:34;7.60;99.90
32640;DHT22;19049;52.524;11.468;2023-12-20T07:16:59;7.50;99.90
32640;DHT22;19049;52.524;11.468;2023-12-20T07:19:25;7.60;99.90
32640;DHT22;19049;52.524;11.468;2023-12-20T07:21:50;7.60;99.90
32640;DHT22;19049;52.524;11.468;2023-12-20T07:24:16;7.60;99.90
32640;DHT22;19049;52.524;11.468;2023-12-20T07:26:42;7.60;99.90
32640;DHT22;19049;52.524;11.468;2023-12-20T07:29:08;7.70;99.90
32640;DHT22;19049;52.524;11.468;2023-12-20T07:31:34;7.70;99.90
32640;DHT22;19049;52.524;11.468;2023-12-20T07:34:00;7.70;99.90
32640;DHT22;19049;52.524;11.468;2023-12-20T07:36:25;7.70;99.90
32640;DHT22;19049;52.524;11.468;2023-12-20T07:38:51;7.70;99.90
32640;DHT22;19049;52.524;11.468;2023-12-20T07:41:16;7.70;99.90
32640;DHT22;19049;52.524;11.468;2023-12-20T07:43:42;7.70;99.90
32640;DHT22;19049;52.524;11.468;2023-12-20T07:46:08;7.70;99.90
32640;DHT22;19049;52.524;11.468;2023-12-20T07:48:35;7.70;99.90
32640;DHT22;19049;52.524;11.468;2023-12-20T07:51:01;7.70;99.90
32640;DHT22;19049;52.524;11.468;2023-12-20T07:53:27;7.80;99.90
32640;DHT22;19049;52.524;11.468;2023-12-20T07:55:52;7.70;99.90
32640;DHT22;19049;52.524;11.468;2023-12-20T07:58:18;7.80;99.90
32640;DHT22;19049;52.524;11.468;2023-12-20T08:00:44;7.80;99.90
32640;DHT22;19049;52.524;11.468;2023-12-20T08:03:09;7.80;99.90
32640;DHT22;19049;52.524;11.468;2023-12-20T08:05:35;7.90;99.90
32640;DHT22;19049;52.524;11.468;2023-12-20T08:08:01;7.90;99.90
32640;DHT22;19049;52.524;11.468;2023-12-20T08:10:26;7.90;99.90
32640;DHT22;19049;52.524;11.468;2023-12-20T08:12:55;7.90;99.90
32640;DHT22;19049;52.524;11.468;2023-12-20T08:15:20;8.00;99.90
32640;DHT22;19049;52.524;11.468;2023-12-20T08:17:46;7.90;99.90
32640;DHT22;19049;52.524;11.468;2023-12-20T08:20:11;7.90;99.90
32640;DHT22;19049;52.524;11.468;2023-12-20T08:22:37;7.90;99.90
32640;DHT22;19049;52.524;11.468;2023-12-20T08:25:03;8.00;99.90
32640;DHT22;19049;52.524;11.468;2023-12-20T08:27:28;7.90;99.90
32640;DHT22;19049;52.524;11.468;2023-12-20T08:29:54;7.90;99.90
32640;DHT22;19049;52.524;11.468;2023-12-20T08:32:20;8.00;99.90
32640;DHT22;19049;52.524;11.468;2023-12-20T08:34:45;8.10;99.90
32640;DHT22;19049;52.524;11.468;2023-12-20T08:37:11;8.20;99.90
32640;DHT22;19049;52.524;11.468;2023-12-20T08:39:36;8.20;99.90
32640;DHT22;19049;52.524;11.468;2023-12-20T08:42:02;8.10;99.90
32640;DHT22;19049;52.524;11.468;2023-12-20T08:44:28;8.20;99.90
32640;DHT22;19049;52.524;11.468;2023-12-20T08:46:53;8.20;99.90
32640;DHT22;19049;52.524;11.468;2023-12-20T08:49:22;8.30;99.90
32640;DHT22;19049;52.524;11.468;2023-12-20T08:51:48;8.30;99.90
32640;DHT22;19049;52.524;11.468;2023-12-20T08:54:13;8.30;99.90
32640;DHT22;19049;52.524;11.468;2023-12-20T08:56:39;8.20;99.90
32640;DHT22;19049;52.524;11.468;2023-12-20T08:59:05;8.30;99.90
32640;DHT22;19049;52.524;11.468;2023-12-20T09:01:30;8.40;99.90
32640;DHT22;19049;52.524;11.468;2023-12-20T09:03:56;8.40;99.90
32640;DHT22;19049;52.524;11.468;2023-12-20T09:06:21;8.50;99.90
32640;DHT22;19049;52.524;11.468;2023-12-20T09:08:47;8.50;99.90
32640;DHT22;19049;52.524;11.468;2023-12-20T09:11:13;8.50;99.90
32640;DHT22;19049;52.524;11.468;2023-12-20T09:13:38;8.50;99.90
32640;DHT22;19049;52.524;11.468;2023-12-20T09:16:04;8.50;99.90
32640;DHT22;19049;52.524;11.468;2023-12-20T09:18:30;8.50;99.90
32640;DHT22;19049;52.524;11.468;2023-12-20T09:20:55;8.50;99.90
32640;DHT22;19049;52.524;11.468;2023-12-20T09:23:21;8.50;99.90
32640;DHT22;19049;52.524;11.468;2023-12-20T09:25:46;8.60;99.90
32640;DHT22;19049;52.524;11.468;2023-12-20T09:28:12;8.60;99.90
32640;DHT22;19049;52.524;11.468;2023-12-20T09:30:38;8.50;99.90
32640;DHT22;19049;52.524;11.468;2023-12-20T09:33:05;8.60;99.90
32640;DHT22;19049;52.524;11.468;2023-12-20T09:35:32;8.60;99.90
32640;DHT22;19049;52.524;11.468;2023-12-20T09:37:58;8.50;99.90
32640;DHT22;19049;52.524;11.468;2023-12-20T09:40:26;8.50;99.90
32640;DHT22;19049;52.524;11.468;2023-12-20T09:43:08;8.60;99.90
32640;DHT22;19049;52.524;11.468;2023-12-20T09:45:34;8.50;99.90
32640;DHT22;19049;52.524;11.468;2023-12-20T09:48:00;8.60;99.90
32640;DHT22;19049;52.524;11.468;2023-12-20T09:50:25;8.70;99.90
32640;DHT22;19049;52.524;11.468;2023-12-20T09:52:53;8.70;99.90
32640;DHT22;19049;52.524;11.468;2023-12-20T09:55:19;8.80;99.90
32640;DHT22;19049;52.524;11.468;2023-12-20T09:57:49;8.70;99.90
32640;DHT22;19049;52.524;11.468;2023-12-20T10:00:15;8.80;99.90
32640;DHT22;19049;52.524;11.468;2023-12-20T10:02:53;8.80;99.90
32640;DHT22;19049;52.524;11.468;2023-12-20T10:05:24;8.90;99.90
32640;DHT22;19049;52.524;11.468;2023-12-20T10:07:51;8.80;99.90
32640;DHT22;19049;52.524;11.468;2023-12-20T10:10:17;8.80;99.90
32640;DHT22;19049;52.524;11.468;2023-12-20T10:13:10;8.80;99.90
32640;DHT22;19049;52.524;11.468;2023-12-20T10:15:36;8.90;99.90
32640;DHT22;19049;52.524;11.468;2023-12-20T10:18:02;9.00;99.90
32640;DHT22;19049;52.524;11.468;2023-12-20T10:20:29;9.10;99.90
32640;DHT22;19049;52.524;11.468;2023-12-20T10:22:56;9.10;99.90
32640;DHT22;19049;52.524;11.468;2023-12-20T10:25:22;9.10;99.90
32640;DHT22;19049;52.524;11.468;2023-12-20T10:27:50;9.10;99.90
32640;DHT22;19049;52.524;11.468;2023-12-20T10:30:16;9.10;99.90
32640;DHT22;19049;52.524;11.468;2023-12-20T10:32:41;9.00;99.90
32640;DHT22;19049;52.524;11.468;2023-12-20T10:35:08;9.00;99.90
32640;DHT22;19049;52.524;11.468;2023-12-20T10:37:37;9.00;99.90
32640;DHT22;19049;52.524;11.468;2023-12-20T10:40:04;9.00;99.90
32640;DHT22;19049;52.524;11.468;2023-12-20T10:42:31;9.00;99.90
32640;DHT22;19049;52.524;11.468;2023-12-20T10:44:59;8.90;99.90
32640;DHT22;19049;52.524;11.468;2023-12-20T10:47:25;8.90;99.90
32640;DHT22;19049;52.524;11.468;2023-12-20T10:49:52;8.90;99.90
32640;DHT22;19049;52.524;11.468;2023-12-20T10:52:18;8.80;99.90
32640;DHT22;19049;52.524;11.468;2023-12-20T10:54:45;8.90;99.90
32640;DHT22;19049;52.524;11.468;2023-12-20T10:57:11;8.90;99.90
32640;DHT22;19049;52.524;11.468;2023-12-20T10:59:37;8.90;99.90
32640;DHT22;19049;52.524;11.468;2023-12-20T11:02:05;8.90;99.90
32640;DHT22;19049;52.524;11.468;2023-12-20T11:04:55;8.90;99.90
32640;DHT22;19049;52.524;11.468;2023-12-20T11:07:29;8.90;99.90
32640;DHT22;19049;52.524;11.468;2023-12-20T11:10:10;8.90;99.90
32640;DHT22;19049;52.524;11.468;2023-12-20T11:12:57;8.90;99.90
32640;DHT22;19049;52.524;11.468;2023-12-20T11:15:24;8.90;99.90
32640;DHT22;19049;52.524;11.468;2023-12-20T11:17:56;8.90;99.90
32640;DHT22;19049;52.524;11.468;2023-12-20T11:20:23;9.00;99.90
32640;DHT22;19049;52.524;11.468;2023-12-20T11:22:53;9.00;99.90
32640;DHT22;19049;52.524;11.468;2023-12-20T11:25:19;9.00;99.90
32640;DHT22;19049;52.524;11.468;2023-12-20T11:28:08;9.00;99.90
32640;DHT22;19049;52.524;11.468;2023-12-20T11:30:42;9.00;99.90
32640;DHT22;19049;52.524;11.468;2023-12-20T11:33:08;8.90;99.90
32640;DHT22;19049;52.524;11.468;2023-12-20T11:35:34;8.90;99.90
32640;DHT22;19049;52.524;11.468;2023-12-20T11:38:02;8.80;99.90
32640;DHT22;19049;52.524;11.468;2023-12-20T11:40:27;8.80;99.90
32640;DHT22;19049;52.524;11.468;2023-12-20T11:42:53;8.80;99.90
32640;DHT22;19049;52.524;11.468;2023-12-20T11:45:22;8.70;99.90
32640;DHT22;19049;52.524;11.468;2023-12-20T11:47:50;8.70;99.90
32640;DHT22;19049;52.524;11.468;2023-12-20T11:50:17;8.70;99.90
32640;DHT22;19049;52.524;11.468;2023-12-20T11:52:43;8.80;99.90
32640;DHT22;19049;52.524;11.468;2023-12-20T11:55:09;8.70;99.90
32640;DHT22;19049;52.524;11.468;2023-12-20T11:57:35;8.70;99.90
32640;DHT22;19049;52.524;11.468;2023-12-20T12:00:02;8.60;99.90
32640;DHT22;19049;52.524;11.468;2023-12-20T12:02:28;8.50;99.90
32640;DHT22;19049;52.524;11.468;2023-12-20T12:04:54;8.50;99.90
32640;DHT22;19049;52.524;11.468;2023-12-20T12:07:21;8.60;99.90
32640;DHT22;19049;52.524;11.468;2023-12-20T12:09:47;8.50;99.90
32640;DHT22;19049;52.524;11.468;2023-12-20T12:12:13;8.50;99.90
32640;DHT22;19049;52.524;11.468;2023-12-20T12:14:39;8.40;99.90
32640;DHT22;19049;52.524;11.468;2023-12-20T12:17:15;8.30;99.90
32640;DHT22;19049;52.524;11.468;2023-12-20T12:19:41;8.40;99.90
32640;DHT22;19049;52.524;11.468;2023-12-20T12:22:09;8.20;99.90
32640;DHT22;19049;52.524;11.468;2023-12-20T12:24:39;8.10;99.90
32640;DHT22;19049;52.524;11.468;2023-12-20T12:27:06;8.00;99.90
32640;DHT22;19049;52.524;11.468;2023-12-20T12:29:33;7.90;99.90
32640;DHT22;19049;52.524;11.468;2023-12-20T12:31:59;7.70;99.90
32640;DHT22;19049;52.524;11.468;2023-12-20T12:34:26;7.60;99.90
32640;DHT22;19049;52.524;11.468;2023-12-20T12:36:52;7.50;99.90
32640;DHT22;19049;52.524;11.468;2023-12-20T12:39:18;7.40;99.90
32640;DHT22;19049;52.524;11.468;2023-12-20T12:41:44;7.40;99.90
32640;DHT22;19049;52.524;11.468;2023-12-20T12:44:09;7.40;99.90
32640;DHT22;19049;52.524;11.468;2023-12-20T12:46:35;7.40;99.90
32640;DHT22;19049;52.524;11.468;2023-12-20T12:49:01;7.40;99.90
32640;DHT22;19049;52.524;11.468;2023-12-20T12:51:26;7.40;99.90
32640;DHT22;19049;52.524;11.468;2023-12-20T12:53:53;7.40;99.90
32640;DHT22;19049;52.524;11.468;2023-12-20T12:56:19;7.40;99.90
32640;DHT22;19049;52.524;11.468;2023-12-20T12:58:44;7.40;99.90
32640;DHT22;19049;52.524;11.468;2023-12-20T13:01:10;7.50;99.90
32640;DHT22;19049;52.524;11.468;2023-12-20T13:03:36;7.70;99.90
32640;DHT22;19049;52.524;11.468;2023-12-20T13:06:02;7.90;99.90
32640;DHT22;19049;52.524;11.468;2023-12-20T13:08:29;8.30;99.90
32640;DHT22;19049;52.524;11.468;2023-12-20T13:10:55;8.50;99.90
32640;DHT22;19049;52.524;11.468;2023-12-20T13:13:22;8.80;99.90
32640;DHT22;19049;52.524;11.468;2023-12-20T13:15:49;9.10;99.90
32640;DHT22;19049;52.524;11.468;2023-12-20T13:18:18;9.10;99.90
32640;DHT22;19049;52.524;11.468;2023-12-20T13:20:44;9.10;99.90
32640;DHT22;19049;52.524;11.468;2023-12-20T13:23:10;9.20;99.90
32640;DHT22;19049;52.524;11.468;2023-12-20T13:25:35;9.30;99.90
32640;DHT22;19049;52.524;11.468;2023-12-20T13:28:01;9.40;99.90
32640;DHT22;19049;52.524;11.468;2023-12-20T13:30:28;9.40;99.90
32640;DHT22;19049;52.524;11.468;2023-12-20T13:32:54;9.40;99.90
32640;DHT22;19049;52.524;11.468;2023-12-20T13:35:19;9.30;99.90
32640;DHT22;19049;52.524;11.468;2023-12-20T13:37:46;9.20;99.90
32640;DHT22;19049;52.524;11.468;2023-12-20T13:40:11;9.20;99.90
32640;DHT22;19049;52.524;11.468;2023-12-20T13:42:38;8.90;99.90
32640;DHT22;19049;52.524;11.468;2023-12-20T13:45:04;8.70;99.90
32640;DHT22;19049;52.524;11.468;2023-12-20T13:47:30;8.40;99.90
32640;DHT22;19049;52.524;11.468;2023-12-20T13:49:56;8.40;99.90
32640;DHT22;19049;52.524;11.468;2023-12-20T13:52:22;8.20;99.90
32640;DHT22;19049;52.524;11.468;2023-12-20T13:54:47;8.00;99.90
32640;DHT22;19049;52.524;11.468;2023-12-20T13:57:13;7.80;99.90
32640;DHT22;19049;52.524;11.468;2023-12-20T13:59:39;7.90;99.90
32640;DHT22;19049;52.524;11.468;2023-12-20T14:02:04;7.80;99.90
32640;DHT22;19049;52.524;11.468;2023-12-20T14:04:30;7.80;99.90
32640;DHT22;19049;52.524;11.468;2023-12-20T14:06:56;7.70;99.90
32640;DHT22;19049;52.524;11.468;2023-12-20T14:09:22;7.70;99.90
32640;DHT22;19049;52.524;11.468;2023-12-20T14:11:48;7.60;99.90
32640;DHT22;19049;52.524;11.468;2023-12-20T14:14:13;7.60;99.90
32640;DHT22;19049;52.524;11.468;2023-12-20T14:16:39;7.60;99.90
32640;DHT22;19049;52.524;11.468;2023-12-20T14:19:05;7.60;99.90
32640;DHT22;19049;52.524;11.468;2023-12-20T14:21:33;7.60;99.90
32640;DHT22;19049;52.524;11.468;2023-12-20T14:23:58;7.50;99.90
32640;DHT22;19049;52.524;11.468;2023-12-20T14:26:24;7.60;99.90
32640;DHT22;19049;52.524;11.468;2023-12-20T14:28:50;7.60;99.90
32640;DHT22;19049;52.524;11.468;2023-12-20T14:31:15;7.60;99.90
32640;DHT22;19049;52.524;11.468;2023-12-20T14:33:41;7.50;99.90
32640;DHT22;19049;52.524;11.468;2023-12-20T14:36:08;7.50;99.90
32640;DHT22;19049;52.524;11.468;2023-12-20T14:38:34;7.50;99.90
32640;DHT22;19049;52.524;11.468;2023-12-20T14:40:59;7.40;99.90
32640;DHT22;19049;52.524;11.468;2023-12-20T14:43:26;7.40;99.90
32640;DHT22;19049;52.524;11.468;2023-12-20T14:45:52;7.30;99.90
32640;DHT22;19049;52.524;11.468;2023-12-20T14:48:17;7.30;99.90
32640;DHT22;19049;52.524;11.468;2023-12-20T14:50:44;7.30;99.90
32640;DHT22;19049;52.524;11.468;2023-12-20T14:53:10;7.30;99.90
32640;DHT22;19049;52.524;11.468;2023-12-20T14:55:35;7.20;99.90
32640;DHT22;19049;52.524;11.468;2023-12-20T14:58:01;7.20;99.90
32640;DHT22;19049;52.524;11.468;2023-12-20T15:00:27;7.20;99.90
32640;DHT22;19049;52.524;11.468;2023-12-20T15:02:53;7.20;99.90
32640;DHT22;19049;52.524;11.468;2023-12-20T15:05:21;7.20;99.90
32640;DHT22;19049;52.524;11.468;2023-12-20T15:07:47;7.20;99.90
32640;DHT22;19049;52.524;11.468;2023-12-20T15:10:13;7.10;99.90
32640;DHT22;19049;52.524;11.468;2023-12-20T15:12:39;7.10;99.90
32640;DHT22;19049;52.524;11.468;2023-12-20T15:15:05;7.10;99.90
32640;DHT22;19049;52.524;11.468;2023-12-20T15:17:31;7.10;99.90
32640;DHT22;19049;52.524;11.468;2023-12-20T15:19:57;7.10;99.90
32640;DHT22;19049;52.524;11.468;2023-12-20T15:22:22;7.10;99.90
32640;DHT22;19049;52.524;11.468;2023-12-20T15:24:49;7.10;99.90